sensor_id;sensor_type;location;lat;lon;timestamp;P1;durP1;ratioP1;P2;durP2;ratioP2
70576;SDS011;58138;43.138;24.702;2022-12-18T00:03:54;14.15;;;9.10;;
70576;SDS011;58138;43.138;24.702;2022-12-18T00:06:20;14.32;;;10.23;;
70576;SDS011;58138;43.138;24.702;2022-12-18T00:08:46;13.20;;;8.45;;
70576;SDS011;58138;43.138;24.702;2022-12-18T00:11:16;16.17;;;9.23;;
70576;SDS011;58138;43.138;24.702;2022-12-18T00:13:44;17.15;;;11.32;;
70576;SDS011;58138;43.138;24.702;2022-12-18T00:16:11;17.00;;;11.32;;
70576;SDS011;58138;43.138;24.702;2022-12-18T00:18:38;18.17;;;10.07;;
70576;SDS011;58138;43.138;24.702;2022-12-18T00:21:05;13.43;;;8.85;;
70576;SDS011;58138;43.138;24.702;2022-12-18T00:23:32;25.17;;;13.35;;
70576;SDS011;58138;43.138;24.702;2022-12-18T00:25:59;22.67;;;13.15;;
70576;SDS011;58138;43.138;24.702;2022-12-18T00:28:25;21.27;;;12.35;;
70576;SDS011;58138;43.138;24.702;2022-12-18T00:30:50;19.52;;;11.68;;
70576;SDS011;58138;43.138;24.702;2022-12-18T00:33:16;17.55;;;11.15;;
70576;SDS011;58138;43.138;24.702;2022-12-18T00:35:42;17.50;;;11.27;;
70576;SDS011;58138;43.138;24.702;2022-12-18T00:38:08;19.80;;;11.07;;
70576;SDS011;58138;43.138;24.702;2022-12-18T00:40:33;18.48;;;11.73;;
70576;SDS011;58138;43.138;24.702;2022-12-18T00:42:59;18.63;;;12.43;;
70576;SDS011;58138;43.138;24.702;2022-12-18T00:45:25;22.35;;;13.50;;
70576;SDS011;58138;43.138;24.702;2022-12-18T00:47:52;19.25;;;12.40;;
70576;SDS011;58138;43.138;24.702;2022-12-18T00:50:18;21.45;;;13.20;;
70576;SDS011;58138;43.138;24.702;2022-12-18T00:52:43;20.00;;;12.27;;
70576;SDS011;58138;43.138;24.702;2022-12-18T00:55:09;20.00;;;12.18;;
70576;SDS011;58138;43.138;24.702;2022-12-18T00:57:38;20.63;;;12.63;;
70576;SDS011;58138;43.138;24.702;2022-12-18T01:00:04;18.80;;;12.30;;
70576;SDS011;58138;43.138;24.702;2022-12-18T01:02:31;18.38;;;11.10;;
70576;SDS011;58138;43.138;24.702;2022-12-18T01:04:56;19.63;;;12.38;;
70576;SDS011;58138;43.138;24.702;2022-12-18T01:07:22;22.20;;;13.43;;
70576;SDS011;58138;43.138;24.702;2022-12-18T01:09:47;24.63;;;14.63;;
70576;SDS011;58138;43.138;24.702;2022-12-18T01:12:13;24.20;;;14.38;;
70576;SDS011;58138;43.138;24.702;2022-12-18T01:14:38;18.27;;;11.93;;
70576;SDS011;58138;43.138;24.702;2022-12-18T01:17:04;18.17;;;11.93;;
70576;SDS011;58138;43.138;24.702;2022-12-18T01:19:29;19.38;;;12.40;;
70576;SDS011;58138;43.138;24.702;2022-12-18T01:21:55;20.38;;;12.43;;
70576;SDS011;58138;43.138;24.702;2022-12-18T01:24:21;20.38;;;13.07;;
70576;SDS011;58138;43.138;24.702;2022-12-18T01:26:46;20.83;;;13.43;;
70576;SDS011;58138;43.138;24.702;2022-12-18T01:29:12;22.33;;;12.88;;
70576;SDS011;58138;43.138;24.702;2022-12-18T01:31:37;25.10;;;13.35;;
70576;SDS011;58138;43.138;24.702;2022-12-18T01:34:03;20.98;;;11.20;;
70576;SDS011;58138;43.138;24.702;2022-12-18T01:36:33;25.75;;;15.68;;
70576;SDS011;58138;43.138;24.702;2022-12-18T01:39:01;20.10;;;12.60;;
70576;SDS011;58138;43.138;24.702;2022-12-18T01:41:29;22.23;;;13.70;;
70576;SDS011;58138;43.138;24.702;2022-12-18T01:47:14;22.25;;;14.18;;
70576;SDS011;58138;43.138;24.702;2022-12-18T01:49:41;23.95;;;14.07;;
70576;SDS011;58138;43.138;24.702;2022-12-18T01:52:06;19.48;;;12.18;;
70576;SDS011;58138;43.138;24.702;2022-12-18T01:54:32;22.20;;;13.48;;
70576;SDS011;58138;43.138;24.702;2022-12-18T01:56:58;22.02;;;13.43;;
70576;SDS011;58138;43.138;24.702;2022-12-18T01:59:24;22.92;;;13.95;;
70576;SDS011;58138;43.138;24.702;2022-12-18T02:01:49;24.75;;;14.30;;
70576;SDS011;58138;43.138;24.702;2022-12-18T02:06:48;27.15;;;15.00;;
70576;SDS011;58138;43.138;24.702;2022-12-18T02:09:25;20.55;;;12.65;;
70576;SDS011;58138;43.138;24.702;2022-12-18T02:11:59;24.58;;;16.75;;
70576;SDS011;58138;43.138;24.702;2022-12-18T02:14:38;24.00;;;13.10;;
70576;SDS011;58138;43.138;24.702;2022-12-18T02:17:13;25.60;;;14.05;;
70576;SDS011;58138;43.138;24.702;2022-12-18T02:28:09;26.58;;;16.35;;
70576;SDS011;58138;43.138;24.702;2022-12-18T02:30:37;25.92;;;16.95;;
70576;SDS011;58138;43.138;24.702;2022-12-18T02:33:04;26.27;;;16.85;;
70576;SDS011;58138;43.138;24.702;2022-12-18T02:35:30;25.77;;;16.17;;
70576;SDS011;58138;43.138;24.702;2022-12-18T02:37:56;24.42;;;15.82;;
70576;SDS011;58138;43.138;24.702;2022-12-18T02:40:23;26.27;;;15.35;;
70576;SDS011;58138;43.138;24.702;2022-12-18T02:42:50;24.70;;;15.25;;
70576;SDS011;58138;43.138;24.702;2022-12-18T02:45:15;25.10;;;15.05;;
70576;SDS011;58138;43.138;24.702;2022-12-18T02:47:42;24.63;;;15.95;;
70576;SDS011;58138;43.138;24.702;2022-12-18T02:53:00;27.52;;;16.52;;
70576;SDS011;58138;43.138;24.702;2022-12-18T02:58:16;24.77;;;15.30;;
70576;SDS011;58138;43.138;24.702;2022-12-18T03:00:48;28.00;;;18.02;;
70576;SDS011;58138;43.138;24.702;2022-12-18T03:03:24;25.98;;;16.33;;
70576;SDS011;58138;43.138;24.702;2022-12-18T03:05:57;29.42;;;17.50;;
70576;SDS011;58138;43.138;24.702;2022-12-18T03:08:31;26.98;;;16.45;;
70576;SDS011;58138;43.138;24.702;2022-12-18T03:11:03;23.42;;;15.68;;
70576;SDS011;58138;43.138;24.702;2022-12-18T03:13:34;26.52;;;14.48;;
70576;SDS011;58138;43.138;24.702;2022-12-18T03:16:08;29.52;;;18.58;;
70576;SDS011;58138;43.138;24.702;2022-12-18T03:18:44;23.20;;;13.82;;
70576;SDS011;58138;43.138;24.702;2022-12-18T03:21:12;30.30;;;17.02;;
70576;SDS011;58138;43.138;24.702;2022-12-18T03:23:46;24.38;;;16.30;;
70576;SDS011;58138;43.138;24.702;2022-12-18T03:26:16;22.05;;;14.68;;
70576;SDS011;58138;43.138;24.702;2022-12-18T03:28:47;24.65;;;15.98;;
70576;SDS011;58138;43.138;24.702;2022-12-18T03:31:19;25.70;;;16.65;;
70576;SDS011;58138;43.138;24.702;2022-12-18T03:33:51;26.00;;;15.85;;
70576;SDS011;58138;43.138;24.702;2022-12-18T03:36:18;23.67;;;15.37;;
70576;SDS011;58138;43.138;24.702;2022-12-18T03:38:44;25.55;;;16.50;;
70576;SDS011;58138;43.138;24.702;2022-12-18T03:49:53;31.10;;;18.17;;
70576;SDS011;58138;43.138;24.702;2022-12-18T03:52:25;24.25;;;14.27;;
70576;SDS011;58138;43.138;24.702;2022-12-18T03:55:11;26.00;;;16.85;;
70576;SDS011;58138;43.138;24.702;2022-12-18T03:57:38;26.20;;;16.17;;
70576;SDS011;58138;43.138;24.702;2022-12-18T04:00:06;25.25;;;16.77;;
70576;SDS011;58138;43.138;24.702;2022-12-18T04:02:34;28.17;;;18.10;;
70576;SDS011;58138;43.138;24.702;2022-12-18T04:05:00;30.58;;;17.52;;
70576;SDS011;58138;43.138;24.702;2022-12-18T04:07:28;21.48;;;13.90;;
70576;SDS011;58138;43.138;24.702;2022-12-18T04:09:54;20.35;;;12.55;;
70576;SDS011;58138;43.138;24.702;2022-12-18T04:12:23;26.23;;;12.65;;
70576;SDS011;58138;43.138;24.702;2022-12-18T04:14:50;16.98;;;8.63;;
70576;SDS011;58138;43.138;24.702;2022-12-18T04:17:15;27.70;;;17.48;;
70576;SDS011;58138;43.138;24.702;2022-12-18T04:19:41;20.83;;;12.15;;
70576;SDS011;58138;43.138;24.702;2022-12-18T04:22:08;26.52;;;16.42;;
70576;SDS011;58138;43.138;24.702;2022-12-18T04:24:34;23.23;;;14.57;;
70576;SDS011;58138;43.138;24.702;2022-12-18T04:27:00;27.13;;;16.42;;
70576;SDS011;58138;43.138;24.702;2022-12-18T04:29:25;30.45;;;18.13;;
70576;SDS011;58138;43.138;24.702;2022-12-18T04:31:50;17.63;;;8.88;;
70576;SDS011;58138;43.138;24.702;2022-12-18T04:34:16;26.27;;;16.90;;
70576;SDS011;58138;43.138;24.702;2022-12-18T04:36:41;27.17;;;16.05;;
70576;SDS011;58138;43.138;24.702;2022-12-18T04:39:07;25.65;;;14.88;;
70576;SDS011;58138;43.138;24.702;2022-12-18T04:41:32;25.83;;;17.08;;
70576;SDS011;58138;43.138;24.702;2022-12-18T04:43:58;26.92;;;15.32;;
70576;SDS011;58138;43.138;24.702;2022-12-18T04:46:23;18.95;;;11.90;;
70576;SDS011;58138;43.138;24.702;2022-12-18T04:48:49;23.75;;;16.58;;
70576;SDS011;58138;43.138;24.702;2022-12-18T04:51:14;20.42;;;12.38;;
70576;SDS011;58138;43.138;24.702;2022-12-18T04:53:39;19.42;;;11.93;;
70576;SDS011;58138;43.138;24.702;2022-12-18T04:56:06;24.67;;;13.45;;
70576;SDS011;58138;43.138;24.702;2022-12-18T04:58:33;26.50;;;16.70;;
70576;SDS011;58138;43.138;24.702;2022-12-18T05:00:59;26.55;;;16.05;;
70576;SDS011;58138;43.138;24.702;2022-12-18T05:03:25;29.10;;;17.20;;
70576;SDS011;58138;43.138;24.702;2022-12-18T05:05:50;28.00;;;16.92;;
70576;SDS011;58138;43.138;24.702;2022-12-18T05:08:16;20.85;;;10.15;;
70576;SDS011;58138;43.138;24.702;2022-12-18T05:10:42;25.15;;;17.23;;
70576;SDS011;58138;43.138;24.702;2022-12-18T05:13:07;29.73;;;19.52;;
70576;SDS011;58138;43.138;24.702;2022-12-18T05:15:33;15.43;;;9.85;;
70576;SDS011;58138;43.138;24.702;2022-12-18T05:17:59;27.95;;;18.70;;
70576;SDS011;58138;43.138;24.702;2022-12-18T05:20:25;10.82;;;5.68;;
70576;SDS011;58138;43.138;24.702;2022-12-18T05:22:51;19.38;;;9.75;;
70576;SDS011;58138;43.138;24.702;2022-12-18T05:25:17;29.42;;;18.52;;
70576;SDS011;58138;43.138;24.702;2022-12-18T05:27:43;29.88;;;16.33;;
70576;SDS011;58138;43.138;24.702;2022-12-18T05:30:08;31.45;;;19.33;;
70576;SDS011;58138;43.138;24.702;2022-12-18T05:32:34;29.98;;;18.55;;
70576;SDS011;58138;43.138;24.702;2022-12-18T05:35:00;30.98;;;19.65;;
70576;SDS011;58138;43.138;24.702;2022-12-18T05:37:25;22.48;;;10.85;;
70576;SDS011;58138;43.138;24.702;2022-12-18T05:39:51;19.13;;;9.05;;
70576;SDS011;58138;43.138;24.702;2022-12-18T05:42:16;27.23;;;17.23;;
70576;SDS011;58138;43.138;24.702;2022-12-18T05:44:43;29.85;;;17.13;;
70576;SDS011;58138;43.138;24.702;2022-12-18T05:47:08;31.75;;;18.60;;
70576;SDS011;58138;43.138;24.702;2022-12-18T05:49:34;29.42;;;18.30;;
70576;SDS011;58138;43.138;24.702;2022-12-18T05:51:59;28.75;;;16.48;;
70576;SDS011;58138;43.138;24.702;2022-12-18T05:54:26;24.75;;;17.10;;
70576;SDS011;58138;43.138;24.702;2022-12-18T05:56:52;28.70;;;16.63;;
70576;SDS011;58138;43.138;24.702;2022-12-18T05:59:18;29.10;;;17.95;;
70576;SDS011;58138;43.138;24.702;2022-12-18T06:01:44;32.85;;;19.55;;
70576;SDS011;58138;43.138;24.702;2022-12-18T06:04:09;31.70;;;19.58;;
70576;SDS011;58138;43.138;24.702;2022-12-18T06:06:35;28.55;;;17.73;;
70576;SDS011;58138;43.138;24.702;2022-12-18T06:09:01;26.70;;;16.52;;
70576;SDS011;58138;43.138;24.702;2022-12-18T06:11:33;31.30;;;20.07;;
70576;SDS011;58138;43.138;24.702;2022-12-18T06:13:59;30.20;;;19.00;;
70576;SDS011;58138;43.138;24.702;2022-12-18T06:16:25;33.92;;;20.98;;
70576;SDS011;58138;43.138;24.702;2022-12-18T06:18:51;31.20;;;21.20;;
70576;SDS011;58138;43.138;24.702;2022-12-18T06:21:16;28.73;;;19.60;;
70576;SDS011;58138;43.138;24.702;2022-12-18T06:23:42;29.55;;;19.55;;
70576;SDS011;58138;43.138;24.702;2022-12-18T06:26:09;32.38;;;20.23;;
70576;SDS011;58138;43.138;24.702;2022-12-18T06:28:36;35.83;;;21.75;;
70576;SDS011;58138;43.138;24.702;2022-12-18T06:31:02;35.88;;;22.63;;
70576;SDS011;58138;43.138;24.702;2022-12-18T06:33:28;35.38;;;22.58;;
70576;SDS011;58138;43.138;24.702;2022-12-18T06:35:54;35.25;;;22.20;;
70576;SDS011;58138;43.138;24.702;2022-12-18T06:38:35;34.80;;;21.35;;
70576;SDS011;58138;43.138;24.702;2022-12-18T06:41:05;37.35;;;24.65;;
70576;SDS011;58138;43.138;24.702;2022-12-18T06:43:32;39.95;;;24.92;;
70576;SDS011;58138;43.138;24.702;2022-12-18T06:45:58;37.20;;;23.35;;
70576;SDS011;58138;43.138;24.702;2022-12-18T06:48:24;36.60;;;24.25;;
70576;SDS011;58138;43.138;24.702;2022-12-18T06:50:50;39.88;;;25.58;;
70576;SDS011;58138;43.138;24.702;2022-12-18T06:53:15;41.40;;;28.73;;
70576;SDS011;58138;43.138;24.702;2022-12-18T06:55:41;45.75;;;28.08;;
70576;SDS011;58138;43.138;24.702;2022-12-18T06:58:06;42.22;;;24.55;;
70576;SDS011;58138;43.138;24.702;2022-12-18T07:00:31;36.95;;;23.35;;
70576;SDS011;58138;43.138;24.702;2022-12-18T07:02:57;37.95;;;23.55;;
70576;SDS011;58138;43.138;24.702;2022-12-18T07:05:23;39.75;;;25.42;;
70576;SDS011;58138;43.138;24.702;2022-12-18T07:07:48;35.45;;;23.65;;
70576;SDS011;58138;43.138;24.702;2022-12-18T07:10:14;36.63;;;24.20;;
70576;SDS011;58138;43.138;24.702;2022-12-18T07:12:39;39.60;;;24.85;;
70576;SDS011;58138;43.138;24.702;2022-12-18T07:15:06;36.85;;;24.95;;
70576;SDS011;58138;43.138;24.702;2022-12-18T07:17:32;42.72;;;25.33;;
70576;SDS011;58138;43.138;24.702;2022-12-18T07:19:57;36.60;;;23.85;;
70576;SDS011;58138;43.138;24.702;2022-12-18T07:22:24;40.13;;;24.27;;
70576;SDS011;58138;43.138;24.702;2022-12-18T07:24:50;43.45;;;28.00;;
70576;SDS011;58138;43.138;24.702;2022-12-18T07:27:16;41.13;;;28.33;;
70576;SDS011;58138;43.138;24.702;2022-12-18T07:29:41;46.72;;;29.17;;
70576;SDS011;58138;43.138;24.702;2022-12-18T07:32:06;48.85;;;30.15;;
70576;SDS011;58138;43.138;24.702;2022-12-18T07:34:32;51.25;;;31.67;;
70576;SDS011;58138;43.138;24.702;2022-12-18T07:36:58;41.47;;;26.02;;
70576;SDS011;58138;43.138;24.702;2022-12-18T07:39:23;34.55;;;20.00;;
70576;SDS011;58138;43.138;24.702;2022-12-18T07:41:49;29.58;;;20.67;;
70576;SDS011;58138;43.138;24.702;2022-12-18T07:44:34;23.10;;;15.05;;
70576;SDS011;58138;43.138;24.702;2022-12-18T07:47:00;17.75;;;11.98;;
70576;SDS011;58138;43.138;24.702;2022-12-18T07:49:25;18.02;;;12.13;;
70576;SDS011;58138;43.138;24.702;2022-12-18T07:51:51;21.73;;;12.63;;
70576;SDS011;58138;43.138;24.702;2022-12-18T07:54:16;14.10;;;10.02;;
70576;SDS011;58138;43.138;24.702;2022-12-18T07:56:41;12.65;;;8.45;;
70576;SDS011;58138;43.138;24.702;2022-12-18T07:59:07;11.45;;;8.13;;
70576;SDS011;58138;43.138;24.702;2022-12-18T08:01:33;14.40;;;10.43;;
70576;SDS011;58138;43.138;24.702;2022-12-18T08:03:58;13.80;;;9.20;;
70576;SDS011;58138;43.138;24.702;2022-12-18T08:06:24;9.55;;;6.00;;
70576;SDS011;58138;43.138;24.702;2022-12-18T08:08:52;14.48;;;10.20;;
70576;SDS011;58138;43.138;24.702;2022-12-18T08:11:18;11.57;;;8.38;;
70576;SDS011;58138;43.138;24.702;2022-12-18T08:13:44;14.57;;;8.93;;
70576;SDS011;58138;43.138;24.702;2022-12-18T08:16:09;16.75;;;11.02;;
70576;SDS011;58138;43.138;24.702;2022-12-18T08:18:35;12.98;;;8.93;;
70576;SDS011;58138;43.138;24.702;2022-12-18T08:21:12;13.05;;;9.55;;
70576;SDS011;58138;43.138;24.702;2022-12-18T08:23:42;11.35;;;8.98;;
70576;SDS011;58138;43.138;24.702;2022-12-18T08:26:07;13.25;;;8.73;;
70576;SDS011;58138;43.138;24.702;2022-12-18T08:28:33;10.70;;;7.78;;
70576;SDS011;58138;43.138;24.702;2022-12-18T08:30:59;14.23;;;9.45;;
70576;SDS011;58138;43.138;24.702;2022-12-18T08:33:25;12.07;;;8.50;;
70576;SDS011;58138;43.138;24.702;2022-12-18T08:35:51;25.02;;;10.80;;
70576;SDS011;58138;43.138;24.702;2022-12-18T08:38:17;24.92;;;12.90;;
70576;SDS011;58138;43.138;24.702;2022-12-18T08:40:42;13.00;;;8.05;;
70576;SDS011;58138;43.138;24.702;2022-12-18T08:43:09;14.10;;;8.75;;
70576;SDS011;58138;43.138;24.702;2022-12-18T08:45:53;12.77;;;7.68;;
70576;SDS011;58138;43.138;24.702;2022-12-18T08:48:19;20.70;;;13.20;;
70576;SDS011;58138;43.138;24.702;2022-12-18T08:50:53;19.33;;;13.70;;
70576;SDS011;58138;43.138;24.702;2022-12-18T08:53:22;18.20;;;10.77;;
70576;SDS011;58138;43.138;24.702;2022-12-18T08:55:47;28.83;;;18.33;;
70576;SDS011;58138;43.138;24.702;2022-12-18T08:58:13;15.30;;;9.32;;
70576;SDS011;58138;43.138;24.702;2022-12-18T09:00:38;16.58;;;9.75;;
70576;SDS011;58138;43.138;24.702;2022-12-18T09:03:03;15.40;;;10.30;;
70576;SDS011;58138;43.138;24.702;2022-12-18T09:05:29;19.50;;;12.00;;
70576;SDS011;58138;43.138;24.702;2022-12-18T09:07:55;14.82;;;9.25;;
70576;SDS011;58138;43.138;24.702;2022-12-18T09:10:21;15.52;;;9.93;;
70576;SDS011;58138;43.138;24.702;2022-12-18T09:12:46;12.57;;;9.25;;
70576;SDS011;58138;43.138;24.702;2022-12-18T09:15:12;14.75;;;10.52;;
70576;SDS011;58138;43.138;24.702;2022-12-18T09:17:37;16.52;;;10.25;;
70576;SDS011;58138;43.138;24.702;2022-12-18T09:20:03;15.75;;;9.40;;
70576;SDS011;58138;43.138;24.702;2022-12-18T09:22:28;18.55;;;12.52;;
70576;SDS011;58138;43.138;24.702;2022-12-18T09:24:54;24.08;;;12.95;;
70576;SDS011;58138;43.138;24.702;2022-12-18T09:27:20;15.90;;;10.07;;
70576;SDS011;58138;43.138;24.702;2022-12-18T09:29:45;12.35;;;8.27;;
70576;SDS011;58138;43.138;24.702;2022-12-18T09:32:11;13.02;;;8.38;;
70576;SDS011;58138;43.138;24.702;2022-12-18T09:34:36;12.25;;;8.32;;
70576;SDS011;58138;43.138;24.702;2022-12-18T09:37:02;13.10;;;8.50;;
70576;SDS011;58138;43.138;24.702;2022-12-18T09:39:27;13.02;;;9.13;;
70576;SDS011;58138;43.138;24.702;2022-12-18T09:41:54;20.55;;;11.95;;
70576;SDS011;58138;43.138;24.702;2022-12-18T09:44:29;19.33;;;13.68;;
70576;SDS011;58138;43.138;24.702;2022-12-18T09:47:03;27.25;;;15.30;;
70576;SDS011;58138;43.138;24.702;2022-12-18T09:49:45;18.98;;;12.32;;
70576;SDS011;58138;43.138;24.702;2022-12-18T09:52:23;24.65;;;13.20;;
70576;SDS011;58138;43.138;24.702;2022-12-18T09:54:53;18.55;;;10.40;;
70576;SDS011;58138;43.138;24.702;2022-12-18T09:57:25;15.50;;;9.90;;
70576;SDS011;58138;43.138;24.702;2022-12-18T09:59:58;14.93;;;9.77;;
70576;SDS011;58138;43.138;24.702;2022-12-18T10:02:30;16.60;;;10.70;;
70576;SDS011;58138;43.138;24.702;2022-12-18T10:05:03;16.95;;;10.27;;
70576;SDS011;58138;43.138;24.702;2022-12-18T10:21:18;19.48;;;10.88;;
70576;SDS011;58138;43.138;24.702;2022-12-18T10:23:55;22.05;;;11.43;;
70576;SDS011;58138;43.138;24.702;2022-12-18T10:26:24;19.13;;;12.63;;
70576;SDS011;58138;43.138;24.702;2022-12-18T10:28:50;17.27;;;11.23;;
70576;SDS011;58138;43.138;24.702;2022-12-18T10:31:17;14.70;;;10.25;;
70576;SDS011;58138;43.138;24.702;2022-12-18T10:33:44;16.85;;;11.75;;
70576;SDS011;58138;43.138;24.702;2022-12-18T10:36:10;17.67;;;9.82;;
70576;SDS011;58138;43.138;24.702;2022-12-18T10:38:36;21.98;;;12.10;;
70576;SDS011;58138;43.138;24.702;2022-12-18T10:41:03;16.33;;;11.27;;
70576;SDS011;58138;43.138;24.702;2022-12-18T10:43:32;17.02;;;11.32;;
70576;SDS011;58138;43.138;24.702;2022-12-18T10:56:41;18.30;;;11.88;;
70576;SDS011;58138;43.138;24.702;2022-12-18T10:59:08;14.77;;;9.23;;
70576;SDS011;58138;43.138;24.702;2022-12-18T11:01:52;16.15;;;10.63;;
70576;SDS011;58138;43.138;24.702;2022-12-18T11:04:26;18.35;;;9.30;;
70576;SDS011;58138;43.138;24.702;2022-12-18T11:07:26;14.73;;;9.90;;
70576;SDS011;58138;43.138;24.702;2022-12-18T11:09:45;15.13;;;10.88;;
70576;SDS011;58138;43.138;24.702;2022-12-18T11:12:25;13.70;;;9.52;;
70576;SDS011;58138;43.138;24.702;2022-12-18T11:14:54;13.98;;;8.80;;
70576;SDS011;58138;43.138;24.702;2022-12-18T11:17:29;13.85;;;9.25;;
70576;SDS011;58138;43.138;24.702;2022-12-18T11:19:57;16.88;;;10.07;;
70576;SDS011;58138;43.138;24.702;2022-12-18T11:22:27;14.60;;;9.82;;
70576;SDS011;58138;43.138;24.702;2022-12-18T11:24:57;15.98;;;9.38;;
70576;SDS011;58138;43.138;24.702;2022-12-18T11:27:29;20.27;;;12.43;;
70576;SDS011;58138;43.138;24.702;2022-12-18T11:30:06;14.02;;;8.25;;
70576;SDS011;58138;43.138;24.702;2022-12-18T11:32:47;17.35;;;11.32;;
70576;SDS011;58138;43.138;24.702;2022-12-18T11:35:18;19.67;;;12.88;;
70576;SDS011;58138;43.138;24.702;2022-12-18T11:37:47;23.33;;;13.63;;
70576;SDS011;58138;43.138;24.702;2022-12-18T11:40:17;21.98;;;13.77;;
70576;SDS011;58138;43.138;24.702;2022-12-18T11:43:18;19.50;;;11.02;;
70576;SDS011;58138;43.138;24.702;2022-12-18T11:45:59;20.33;;;13.57;;
70576;SDS011;58138;43.138;24.702;2022-12-18T11:48:32;21.05;;;13.07;;
70576;SDS011;58138;43.138;24.702;2022-12-18T11:51:03;16.58;;;11.73;;
70576;SDS011;58138;43.138;24.702;2022-12-18T11:53:30;20.70;;;13.13;;
70576;SDS011;58138;43.138;24.702;2022-12-18T11:56:05;18.40;;;13.00;;
70576;SDS011;58138;43.138;24.702;2022-12-18T11:58:59;18.85;;;12.50;;
70576;SDS011;58138;43.138;24.702;2022-12-18T12:04:17;42.20;;;21.70;;
70576;SDS011;58138;43.138;24.702;2022-12-18T12:09:50;28.00;;;16.60;;
70576;SDS011;58138;43.138;24.702;2022-12-18T12:12:39;30.98;;;16.52;;
70576;SDS011;58138;43.138;24.702;2022-12-18T12:18:11;48.47;;;24.30;;
70576;SDS011;58138;43.138;24.702;2022-12-18T12:26:38;20.20;;;11.75;;
70576;SDS011;58138;43.138;24.702;2022-12-18T12:40:26;14.63;;;10.93;;
70576;SDS011;58138;43.138;24.702;2022-12-18T12:43:54;14.98;;;11.50;;
70576;SDS011;58138;43.138;24.702;2022-12-18T12:45:55;16.30;;;9.95;;
70576;SDS011;58138;43.138;24.702;2022-12-18T12:48:31;16.55;;;10.90;;
70576;SDS011;58138;43.138;24.702;2022-12-18T12:51:04;23.55;;;13.45;;
70576;SDS011;58138;43.138;24.702;2022-12-18T12:53:35;19.98;;;12.32;;
70576;SDS011;58138;43.138;24.702;2022-12-18T12:56:03;14.88;;;8.95;;
70576;SDS011;58138;43.138;24.702;2022-12-18T12:58:31;16.70;;;11.07;;
70576;SDS011;58138;43.138;24.702;2022-12-18T13:01:16;15.98;;;10.55;;
70576;SDS011;58138;43.138;24.702;2022-12-18T13:07:23;18.58;;;13.85;;
70576;SDS011;58138;43.138;24.702;2022-12-18T13:09:32;18.25;;;12.70;;
70576;SDS011;58138;43.138;24.702;2022-12-18T13:12:03;31.02;;;17.23;;
70576;SDS011;58138;43.138;24.702;2022-12-18T13:14:48;18.25;;;11.63;;
70576;SDS011;58138;43.138;24.702;2022-12-18T13:17:25;25.13;;;14.18;;
70576;SDS011;58138;43.138;24.702;2022-12-18T13:20:04;25.70;;;15.20;;
70576;SDS011;58138;43.138;24.702;2022-12-18T13:28:48;28.98;;;17.60;;
70576;SDS011;58138;43.138;24.702;2022-12-18T13:30:49;30.33;;;18.95;;
70576;SDS011;58138;43.138;24.702;2022-12-18T13:36:15;28.42;;;17.27;;
70576;SDS011;58138;43.138;24.702;2022-12-18T13:38:47;18.77;;;12.50;;
70576;SDS011;58138;43.138;24.702;2022-12-18T13:48:50;45.67;;;25.65;;
70576;SDS011;58138;43.138;24.702;2022-12-18T13:51:23;38.13;;;20.92;;
70576;SDS011;58138;43.138;24.702;2022-12-18T13:53:50;32.35;;;18.88;;
70576;SDS011;58138;43.138;24.702;2022-12-18T13:56:17;27.95;;;16.40;;
70576;SDS011;58138;43.138;24.702;2022-12-18T13:58:43;24.40;;;15.68;;
70576;SDS011;58138;43.138;24.702;2022-12-18T14:01:21;24.48;;;16.65;;
70576;SDS011;58138;43.138;24.702;2022-12-18T14:03:47;36.50;;;21.63;;
70576;SDS011;58138;43.138;24.702;2022-12-18T14:06:13;27.73;;;17.27;;
70576;SDS011;58138;43.138;24.702;2022-12-18T14:08:39;28.85;;;17.38;;
70576;SDS011;58138;43.138;24.702;2022-12-18T14:11:06;22.05;;;14.15;;
70576;SDS011;58138;43.138;24.702;2022-12-18T14:13:33;22.08;;;13.48;;
70576;SDS011;58138;43.138;24.702;2022-12-18T14:21:24;24.88;;;16.77;;
70576;SDS011;58138;43.138;24.702;2022-12-18T14:24:12;26.95;;;17.13;;
70576;SDS011;58138;43.138;24.702;2022-12-18T14:26:45;36.30;;;23.40;;
70576;SDS011;58138;43.138;24.702;2022-12-18T14:29:18;41.95;;;25.48;;
70576;SDS011;58138;43.138;24.702;2022-12-18T14:34:50;36.60;;;21.67;;
70576;SDS011;58138;43.138;24.702;2022-12-18T14:37:20;34.00;;;20.58;;
70576;SDS011;58138;43.138;24.702;2022-12-18T14:40:00;27.60;;;15.43;;
70576;SDS011;58138;43.138;24.702;2022-12-18T14:42:29;28.27;;;17.00;;
70576;SDS011;58138;43.138;24.702;2022-12-18T14:47:59;27.15;;;15.50;;
70576;SDS011;58138;43.138;24.702;2022-12-18T14:50:24;27.55;;;17.15;;
70576;SDS011;58138;43.138;24.702;2022-12-18T14:52:51;25.50;;;16.48;;
70576;SDS011;58138;43.138;24.702;2022-12-18T14:55:17;27.23;;;17.70;;
70576;SDS011;58138;43.138;24.702;2022-12-18T14:57:43;29.48;;;17.67;;
70576;SDS011;58138;43.138;24.702;2022-12-18T15:00:16;29.95;;;18.20;;
70576;SDS011;58138;43.138;24.702;2022-12-18T15:02:44;32.17;;;18.58;;
70576;SDS011;58138;43.138;24.702;2022-12-18T15:07:54;26.77;;;15.82;;
70576;SDS011;58138;43.138;24.702;2022-12-18T15:10:25;26.73;;;16.80;;
70576;SDS011;58138;43.138;24.702;2022-12-18T15:20:40;19.50;;;13.15;;
70576;SDS011;58138;43.138;24.702;2022-12-18T15:25:46;31.40;;;19.38;;
70576;SDS011;58138;43.138;24.702;2022-12-18T15:28:17;30.80;;;16.95;;
70576;SDS011;58138;43.138;24.702;2022-12-18T15:33:40;32.00;;;17.20;;
70576;SDS011;58138;43.138;24.702;2022-12-18T15:36:11;33.17;;;19.23;;
70576;SDS011;58138;43.138;24.702;2022-12-18T15:38:38;37.60;;;19.83;;
70576;SDS011;58138;43.138;24.702;2022-12-18T15:41:03;41.20;;;20.83;;
70576;SDS011;58138;43.138;24.702;2022-12-18T15:43:29;36.25;;;22.45;;
70576;SDS011;58138;43.138;24.702;2022-12-18T15:46:04;33.28;;;19.10;;
70576;SDS011;58138;43.138;24.702;2022-12-18T15:48:32;39.70;;;21.02;;
70576;SDS011;58138;43.138;24.702;2022-12-18T15:50:59;48.97;;;26.75;;
70576;SDS011;58138;43.138;24.702;2022-12-18T15:53:25;39.60;;;23.73;;
70576;SDS011;58138;43.138;24.702;2022-12-18T15:55:54;33.00;;;19.45;;
70576;SDS011;58138;43.138;24.702;2022-12-18T15:58:38;32.47;;;19.90;;
70576;SDS011;58138;43.138;24.702;2022-12-18T16:01:04;34.83;;;19.77;;
70576;SDS011;58138;43.138;24.702;2022-12-18T16:03:29;37.90;;;22.08;;
70576;SDS011;58138;43.138;24.702;2022-12-18T16:05:55;39.17;;;23.15;;
70576;SDS011;58138;43.138;24.702;2022-12-18T16:08:20;43.47;;;26.38;;
70576;SDS011;58138;43.138;24.702;2022-12-18T16:10:46;30.00;;;19.40;;
70576;SDS011;58138;43.138;24.702;2022-12-18T16:13:12;40.30;;;20.52;;
70576;SDS011;58138;43.138;24.702;2022-12-18T16:15:41;37.42;;;21.95;;
70576;SDS011;58138;43.138;24.702;2022-12-18T16:18:06;39.75;;;24.75;;
70576;SDS011;58138;43.138;24.702;2022-12-18T16:20:32;36.95;;;24.15;;
70576;SDS011;58138;43.138;24.702;2022-12-18T16:22:57;33.55;;;20.25;;
70576;SDS011;58138;43.138;24.702;2022-12-18T16:25:24;36.25;;;22.40;;
70576;SDS011;58138;43.138;24.702;2022-12-18T16:27:51;50.38;;;30.50;;